Time;durP1;ratioP1;P1;durP2;ratioP2;P2;SDS_P1;SDS_P2;PMS_P1;PMS_P2;Temp;Humidity;BMP_temperature;BMP_pressure;BME280_temperature;BME280_humidity;BME280_pressure;Samples;Min_cycle;Max_cycle;Signal;HPM_P1;HPM_P2
2022/03/11 00:01:56;;;;;;;0.20;0.20;;;;;;;7.22;52.84;101051.00;5036763;28;20419;-74
2022/03/11 00:04:21;;;;;;;0.20;0.20;;;;;;;7.25;52.83;101051.19;5036353;28;20460;-73
2022/03/11 00:06:47;;;;;;;0.20;0.20;;;;;;;7.25;52.43;101045.66;5036091;28;20025;-74
2022/03/11 00:09:12;;;;;;;0.20;0.20;;;;;;;7.13;52.51;101039.88;5053447;28;20083;-74
2022/03/11 00:11:38;;;;;;;0.20;0.20;;;;;;;7.11;52.54;101041.34;5036246;28;20550;-74
2022/03/11 00:14:03;;;;;;;0.20;0.20;;;;;;;7.09;52.73;101047.22;5053882;28;20064;-74
2022/03/11 00:16:29;;;;;;;0.20;0.20;;;;;;;7.15;52.67;101034.06;5036429;28;20060;-74
2022/03/11 00:18:55;;;;;;;0.20;0.20;;;;;;;7.13;52.89;101031.59;5036268;28;20406;-74
2022/03/11 00:21:20;;;;;;;0.20;0.20;;;;;;;7.04;53.18;101034.31;5033748;28;20480;-73
2022/03/11 00:23:46;;;;;;;0.20;0.20;;;;;;;6.80;52.87;101006.19;5035849;28;20379;-73
2022/03/11 00:26:13;;;;;;;0.20;0.20;;;;;;;6.97;52.94;101030.38;5035658;28;20492;-73
2022/03/11 00:28:38;;;;;;;0.20;0.20;;;;;;;6.87;52.69;101016.81;5035815;28;20112;-73
2022/03/11 00:31:07;;;;;;;0.20;0.20;;;;;;;6.90;53.58;101033.59;5053848;28;20104;-73
2022/03/11 00:33:34;;;;;;;0.20;0.20;;;;;;;6.83;53.14;101025.75;5036364;28;20087;-73
2022/03/11 00:36:00;;;;;;;0.20;0.20;;;;;;;6.80;53.25;101025.56;5053911;28;20063;-73
2022/03/11 00:38:26;;;;;;;0.20;0.20;;;;;;;6.92;53.14;101033.28;5035745;28;20032;-73
2022/03/11 00:40:56;;;;;;;0.20;0.20;;;;;;;6.95;53.32;101035.41;5053686;28;20025;-73
2022/03/11 00:43:23;;;;;;;0.20;0.20;;;;;;;6.81;53.07;101030.78;5036449;28;20554;-73
2022/03/11 00:45:49;;;;;;;0.22;0.22;;;;;;;6.79;52.92;101027.50;5036632;28;20467;-73
2022/03/11 00:48:14;;;;;;;0.20;0.20;;;;;;;6.83;52.72;101027.72;5038356;28;20107;-73
2022/03/11 00:50:40;;;;;;;0.20;0.20;;;;;;;6.68;52.66;101014.28;5038430;28;20367;-73
2022/03/11 00:53:05;;;;;;;0.20;0.20;;;;;;;6.74;52.95;101013.00;5037190;28;20380;-73
2022/03/11 00:55:31;;;;;;;0.20;0.20;;;;;;;6.64;52.80;101016.03;5035745;28;20102;-73
2022/03/11 00:57:57;;;;;;;0.20;0.20;;;;;;;6.56;52.76;101007.38;5035700;28;20055;-73
2022/03/11 01:00:22;;;;;;;0.20;0.20;;;;;;;6.61;52.34;101016.69;5052223;28;20028;-73
2022/03/11 01:02:48;;;;;;;0.20;0.20;;;;;;;6.59;52.27;101010.63;5035406;28;20021;-73
2022/03/11 01:05:13;;;;;;;0.20;0.20;;;;;;;6.61;51.87;101009.19;5035539;28;20036;-73
2022/03/11 01:07:39;;;;;;;0.20;0.20;;;;;;;6.57;51.50;100980.53;5035893;28;20065;-73
2022/03/11 01:10:06;;;;;;;0.20;0.20;;;;;;;6.61;51.82;100998.16;5035385;28;20040;-73
2022/03/11 01:12:32;;;;;;;0.20;0.20;;;;;;;6.59;51.67;100997.63;5053327;28;20021;-73
2022/03/11 01:14:58;;;;;;;0.20;0.20;;;;;;;6.62;51.67;101002.53;5053595;28;20490;-73
2022/03/11 01:17:23;;;;;;;0.20;0.20;;;;;;;6.63;51.42;101001.41;5035498;28;20385;-73
2022/03/11 01:19:49;;;;;;;0.20;0.20;;;;;;;6.64;51.66;100997.50;5035429;28;20040;-73
2022/03/11 01:22:14;;;;;;;0.20;0.20;;;;;;;6.68;51.48;101003.22;5036878;28;20049;-73
2022/03/11 01:24:40;;;;;;;0.20;0.20;;;;;;;6.56;50.90;100992.75;5039186;28;20135;-73
2022/03/11 01:27:06;;;;;;;0.20;0.20;;;;;;;6.55;50.53;100978.09;5056758;28;20032;-73
2022/03/11 01:29:31;;;;;;;0.20;0.20;;;;;;;6.63;50.79;100973.75;5039049;28;20053;-73
2022/03/11 01:31:57;;;;;;;0.20;0.20;;;;;;;6.62;50.70;100983.19;5057127;28;20064;-73
2022/03/11 01:34:23;;;;;;;0.20;0.20;;;;;;;6.67;50.35;100982.22;5056838;28;20033;-74
2022/03/11 01:36:48;;;;;;;0.20;0.20;;;;;;;6.67;50.70;100991.34;5056610;28;20025;-73
2022/03/11 01:39:14;;;;;;;0.20;0.20;;;;;;;6.69;50.36;100988.25;5039208;28;20554;-74
2022/03/11 01:41:39;;;;;;;0.20;0.20;;;;;;;6.70;49.77;100978.81;5038778;28;20501;-73
2022/03/11 01:44:07;;;;;;;0.20;0.20;;;;;;;6.68;49.78;100983.84;5038823;28;20033;-73
2022/03/11 01:46:34;;;;;;;0.20;0.20;;;;;;;6.55;49.54;100967.03;5038797;28;20029;-74
2022/03/11 01:49:01;;;;;;;0.20;0.20;;;;;;;6.52;50.12;100977.91;5056237;28;20103;-73
2022/03/11 01:51:28;;;;;;;0.20;0.20;;;;;;;6.48;49.83;100988.78;5038907;28;20017;-74
2022/03/11 01:53:54;;;;;;;0.20;0.20;;;;;;;6.44;49.74;100987.75;5038677;28;20036;-74
2022/03/11 01:56:21;;;;;;;0.20;0.20;;;;;;;6.36;49.68;100980.25;5038510;28;20025;-74
2022/03/11 01:58:52;;;;;;;0.20;0.20;;;;;;;6.32;49.29;100972.91;5038615;28;20036;-74
2022/03/11 02:01:19;;;;;;;0.20;0.20;;;;;;;6.24;49.74;100953.19;5056777;28;20036;-74
2022/03/11 02:03:44;;;;;;;0.20;0.20;;;;;;;6.40;49.62;100977.69;5038525;28;20025;-73
2022/03/11 02:06:13;;;;;;;0.20;0.20;;;;;;;6.48;49.11;100971.38;5056811;28;20119;-73
2022/03/11 02:08:39;;;;;;;0.20;0.20;;;;;;;6.41;48.13;100979.31;5039626;28;20479;-74
2022/03/11 02:11:04;;;;;;;0.20;0.20;;;;;;;6.47;48.57;100969.75;5038960;28;20108;-74
2022/03/11 02:13:51;;;;;;;0.20;0.20;;;;;;;6.51;48.56;100965.22;5038568;28;20455;-74
2022/03/11 02:16:22;;;;;;;0.20;0.20;;;;;;;6.57;48.60;100963.97;5056363;28;20032;-73
2022/03/11 02:18:48;;;;;;;0.20;0.20;;;;;;;6.50;48.42;100969.13;5038157;28;20037;-73
2022/03/11 02:21:16;;;;;;;0.20;0.20;;;;;;;6.51;48.37;100960.50;5037979;28;20025;-73
2022/03/11 02:23:43;;;;;;;0.20;0.20;;;;;;;6.57;48.38;100969.47;5038124;28;20071;-74
2022/03/11 02:26:09;;;;;;;0.20;0.20;;;;;;;6.39;48.14;100937.31;5056139;28;20037;-74
2022/03/11 02:28:35;;;;;;;0.20;0.20;;;;;;;6.47;48.55;100964.22;5037844;28;20495;-74
2022/03/11 02:31:01;;;;;;;0.20;0.20;;;;;;;6.61;48.27;100980.75;5037719;28;20021;-73
2022/03/11 02:33:28;;;;;;;0.20;0.20;;;;;;;6.51;48.59;100977.09;5055978;28;20039;-74
2022/03/11 02:35:53;;;;;;;0.20;0.20;;;;;;;6.61;48.03;100970.50;5037876;28;20065;-74
2022/03/11 02:38:19;;;;;;;0.20;0.20;;;;;;;6.44;48.87;100954.59;5038278;28;20052;-74
2022/03/11 02:40:45;;;;;;;0.20;0.20;;;;;;;6.50;48.98;100958.06;5037579;28;20033;-74
2022/03/11 02:43:10;;;;;;;0.20;0.20;;;;;;;6.46;48.84;100979.19;5037853;28;20029;-73
2022/03/11 02:45:36;;;;;;;0.20;0.20;;;;;;;6.37;49.20;100976.34;5037687;28;20033;-74
2022/03/11 02:48:01;;;;;;;0.20;0.20;;;;;;;6.34;48.71;100971.47;5037150;28;20033;-73
2022/03/11 02:50:27;;;;;;;0.20;0.20;;;;;;;6.26;48.82;100978.56;5037906;28;20029;-74
2022/03/11 02:52:52;;;;;;;0.20;0.20;;;;;;;6.27;48.91;100960.84;5038296;28;20040;-74
2022/03/11 02:55:18;;;;;;;0.20;0.20;;;;;;;6.24;49.34;100967.00;5037630;28;20475;-74
2022/03/11 02:57:43;;;;;;;0.20;0.20;;;;;;;6.24;49.47;100967.00;5037802;28;20032;-74
2022/03/11 03:00:10;;;;;;;0.20;0.20;;;;;;;6.24;48.49;100950.44;5037894;28;20455;-73
2022/03/11 03:02:35;;;;;;;0.20;0.20;;;;;;;6.09;49.60;100974.84;5037166;28;20021;-73
2022/03/11 03:05:01;;;;;;;0.20;0.20;;;;;;;6.02;49.75;100980.81;5037586;28;20037;-73
2022/03/11 03:07:27;;;;;;;0.20;0.20;;;;;;;6.04;49.91;100979.38;5037738;28;20391;-74
2022/03/11 03:09:53;;;;;;;0.20;0.20;;;;;;;6.24;49.76;100977.25;5037318;28;20025;-74
2022/03/11 03:12:18;;;;;;;0.20;0.20;;;;;;;6.15;49.33;100973.59;5037154;28;20024;-73
2022/03/11 03:14:44;;;;;;;0.20;0.20;;;;;;;5.98;50.38;100985.34;5037170;28;20040;-73
2022/03/11 03:17:09;;;;;;;0.20;0.20;;;;;;;5.84;50.19;100987.28;5037631;28;20033;-74
2022/03/11 03:19:35;;;;;;;0.20;0.20;;;;;;;5.70;51.01;100979.88;5037418;28;20407;-74
2022/03/11 03:22:03;;;;;;;0.20;0.20;;;;;;;5.65;51.56;100976.41;5054505;28;20494;-73
2022/03/11 03:24:28;;;;;;;0.20;0.20;;;;;;;5.50;50.85;100961.81;5055030;28;20017;-73
2022/03/11 03:26:55;;;;;;;0.20;0.20;;;;;;;5.64;51.55;100986.59;5036903;28;20037;-73
2022/03/11 03:29:21;;;;;;;0.20;0.20;;;;;;;5.61;52.41;100995.53;5054479;28;20506;-73
2022/03/11 03:31:47;;;;;;;0.20;0.20;;;;;;;5.61;53.37;100987.25;5016973;28;20040;-73
2022/03/11 03:34:13;;;;;;;0.20;0.20;;;;;;;5.61;54.10;100987.25;5051006;28;20092;-73
2022/03/11 03:36:38;;;;;;;0.20;0.20;;;;;;;5.72;54.20;100993.34;5055571;28;20029;-74
2022/03/11 03:39:04;;;;;;;0.20;0.20;;;;;;;5.71;55.04;100991.72;5038475;28;20479;-75
2022/03/11 03:41:30;;;;;;;0.20;0.20;;;;;;;5.65;55.16;100990.22;5039769;28;20033;-74
2022/03/11 03:43:55;;;;;;;0.20;0.20;;;;;;;5.67;55.69;100991.53;5037485;28;20028;-74
2022/03/11 03:46:21;;;;;;;0.20;0.20;;;;;;;5.69;55.50;100988.44;5036159;28;20056;-73
2022/03/11 03:48:46;;;;;;;0.20;0.20;;;;;;;5.73;55.74;100994.97;5036981;28;20115;-73
2022/03/11 03:51:12;;;;;;;0.20;0.20;;;;;;;5.69;55.40;100997.53;5054463;28;20460;-74
2022/03/11 03:53:37;;;;;;;0.20;0.20;;;;;;;5.62;56.41;100994.41;5036730;28;20360;-74
2022/03/11 03:56:03;;;;;;;0.20;0.20;;;;;;;5.55;56.61;100994.00;5036334;28;20437;-74
2022/03/11 03:58:28;;;;;;;0.20;0.20;;;;;;;5.41;56.36;100982.16;5037086;28;20039;-74
2022/03/11 04:00:54;;;;;;;0.20;0.20;;;;;;;5.30;56.47;100986.25;5054160;28;20056;-73
2022/03/11 04:03:19;;;;;;;0.20;0.20;;;;;;;5.24;56.80;100991.88;5053887;28;20057;-74
2022/03/11 04:05:45;;;;;;;0.20;0.20;;;;;;;5.26;57.60;101000.66;5036267;28;20107;-73
2022/03/11 04:08:10;;;;;;;0.20;0.20;;;;;;;5.34;56.63;101001.09;5053790;28;20025;-74
2022/03/11 04:10:36;;;;;;;0.20;0.20;;;;;;;5.37;56.41;101004.03;5036661;28;20079;-74
2022/03/11 04:13:02;;;;;;;0.20;0.20;;;;;;;5.22;57.00;101005.19;5053652;28;20420;-74
2022/03/11 04:15:28;;;;;;;0.20;0.20;;;;;;;5.15;56.88;101002.00;5035966;28;20369;-73
2022/03/11 04:17:53;;;;;;;0.20;0.20;;;;;;;5.02;57.26;101002.00;5036311;28;20036;-74
2022/03/11 04:20:19;;;;;;;0.20;0.20;;;;;;;5.00;57.64;101002.28;5035981;28;20375;-73
2022/03/11 04:22:45;;;;;;;0.20;0.20;;;;;;;4.79;57.41;100981.75;5035780;28;20072;-74
2022/03/11 04:25:13;;;;;;;0.20;0.20;;;;;;;4.87;57.56;100979.09;5032627;28;20037;-74
2022/03/11 04:27:38;;;;;;;0.20;0.20;;;;;;;4.95;56.55;101007.91;5035704;28;20535;-73
2022/03/11 04:30:04;;;;;;;0.20;0.20;;;;;;;4.83;57.08;101005.66;5036182;28;20065;-73
2022/03/11 04:32:30;;;;;;;0.20;0.20;;;;;;;4.79;57.08;101003.81;5053996;28;20036;-74
2022/03/11 04:34:55;;;;;;;0.20;0.20;;;;;;;4.72;57.76;101005.03;5035836;28;20029;-73
2022/03/11 04:37:21;;;;;;;0.20;0.20;;;;;;;4.61;57.78;101014.59;5035833;28;20029;-73
2022/03/11 04:39:46;;;;;;;0.20;0.20;;;;;;;4.56;57.28;101000.09;5054261;28;20029;-74
2022/03/11 04:42:12;;;;;;;0.20;0.20;;;;;;;4.56;57.65;101006.41;5035829;28;20029;-73
2022/03/11 04:44:38;;;;;;;0.20;0.20;;;;;;;4.55;57.48;100999.28;5035727;28;20037;-74
2022/03/11 04:47:04;;;;;;;0.20;0.20;;;;;;;4.61;57.25;101009.09;5053608;28;20155;-73
2022/03/11 04:49:30;;;;;;;0.20;0.20;;;;;;;4.59;57.17;101007.78;5053227;28;20036;-74
2022/03/11 04:51:55;;;;;;;0.20;0.20;;;;;;;4.53;57.08;101006.19;5032831;28;20034;-74
2022/03/11 04:54:21;;;;;;;0.20;0.20;;;;;;;4.55;56.77;101009.50;5031616;28;20030;-73
2022/03/11 04:56:46;;;;;;;0.20;0.20;;;;;;;4.64;56.65;101005.75;5056093;28;20056;-74
2022/03/11 04:59:12;;;;;;;0.20;0.20;;;;;;;4.63;56.71;101009.59;5039749;28;20361;-74
2022/03/11 05:01:38;;;;;;;0.20;0.20;;;;;;;4.65;56.38;101014.81;5039672;28;20029;-74
2022/03/11 05:04:04;;;;;;;0.20;0.20;;;;;;;4.60;55.97;101023.19;5057553;28;20029;-74
2022/03/11 05:06:29;;;;;;;0.20;0.20;;;;;;;4.61;56.30;101016.53;5039536;28;20471;-74
2022/03/11 05:08:55;;;;;;;0.20;0.20;;;;;;;4.68;56.30;101017.78;5039601;28;20131;-73
2022/03/11 05:11:21;;;;;;;0.20;0.20;;;;;;;4.67;56.11;101018.91;5039563;28;20033;-73
2022/03/11 05:13:46;;;;;;;0.20;0.20;;;;;;;4.67;56.29;101024.41;5040069;28;20412;-73
2022/03/11 05:16:12;;;;;;;0.20;0.20;;;;;;;4.67;55.95;101020.84;5040009;28;20518;-73
2022/03/11 05:18:37;;;;;;;0.20;0.20;;;;;;;4.62;55.88;101016.22;5040580;28;20060;-74
2022/03/11 05:21:03;;;;;;;0.20;0.20;;;;;;;4.57;55.93;101007.22;5040177;28;20472;-74
2022/03/11 05:23:29;;;;;;;0.20;0.20;;;;;;;4.72;56.21;101018.81;5040002;28;20174;-73
2022/03/11 05:25:54;;;;;;;0.20;0.20;;;;;;;4.75;55.86;101022.09;5057671;28;20174;-73
2022/03/11 05:28:20;;;;;;;0.20;0.20;;;;;;;4.84;55.74;101017.50;5039301;28;20029;-74
2022/03/11 05:30:45;;;;;;;0.20;0.20;;;;;;;4.92;55.51;101023.13;5039673;28;20048;-74
2022/03/11 05:33:11;;;;;;;0.20;0.20;;;;;;;5.09;54.68;101019.78;5039256;28;20033;-74
2022/03/11 05:35:36;;;;;;;0.20;0.20;;;;;;;5.60;53.23;101028.97;5039024;28;20075;-73
2022/03/11 05:38:02;;;;;;;0.20;0.20;;;;;;;6.15;51.75;101026.91;5039542;28;20029;-73
2022/03/11 05:40:28;;;;;;;0.20;0.20;;;;;;;6.69;50.35;101024.19;5039018;28;20443;-73
2022/03/11 05:42:53;;;;;;;0.20;0.20;;;;;;;7.30;48.06;101020.59;5036176;28;20021;-73
2022/03/11 05:45:19;;;;;;;0.20;0.20;;;;;;;7.77;46.61;101018.09;5053980;28;20391;-74
2022/03/11 05:47:45;;;;;;;0.20;0.20;;;;;;;8.26;44.78;101007.69;5057025;28;20112;-74
2022/03/11 05:50:10;;;;;;;0.20;0.20;;;;;;;8.85;44.21;101019.03;5039326;28;20032;-74
2022/03/11 05:52:40;;;;;;;0.20;0.20;;;;;;;9.38;43.17;101020.47;5056606;28;20525;-74
2022/03/11 05:55:07;;;;;;;0.20;0.20;;;;;;;9.77;42.42;101025.97;5055579;28;20029;-74
2022/03/11 05:57:33;;;;;;;0.20;0.20;;;;;;;10.19;40.54;101021.25;5039225;28;20029;-74
2022/03/11 05:59:58;;;;;;;0.20;0.20;;;;;;;10.64;39.91;101024.09;5038586;28;20178;-74
2022/03/11 06:02:24;;;;;;;0.20;0.20;;;;;;;10.93;38.89;101017.59;5039120;28;20033;-74
2022/03/11 06:04:50;;;;;;;0.20;0.20;;;;;;;11.29;37.91;101021.56;5035221;28;20029;-74
2022/03/11 06:07:16;;;;;;;0.20;0.20;;;;;;;11.47;38.32;101008.22;5031407;28;20025;-74
2022/03/11 06:09:41;;;;;;;0.20;0.20;;;;;;;11.83;37.90;101026.13;5038425;28;20033;-73
2022/03/11 06:12:07;;;;;;;0.20;0.20;;;;;;;11.96;36.35;101027.72;5056184;28;20029;-73
2022/03/11 06:14:33;;;;;;;0.20;0.20;;;;;;;12.26;35.76;101033.81;5056229;28;20037;-73
2022/03/11 06:16:59;;;;;;;0.20;0.20;;;;;;;12.66;34.97;101041.31;5034915;28;20029;-73
2022/03/11 06:19:24;;;;;;;0.20;0.20;;;;;;;12.86;34.87;101029.13;5036938;28;20033;-75
2022/03/11 06:21:50;;;;;;;0.20;0.20;;;;;;;13.46;34.17;101034.66;5038177;28;20068;-74
2022/03/11 06:24:16;;;;;;;0.20;0.20;;;;;;;13.33;34.72;101037.56;5056053;28;20100;-72
2022/03/11 06:26:42;;;;;;;0.20;0.20;;;;;;;13.48;34.45;101038.75;5038105;28;20094;-73
2022/03/11 06:29:10;;;;;;;0.20;0.20;;;;;;;13.58;33.40;101042.94;5037888;28;20029;-74
2022/03/11 06:31:35;;;;;;;0.20;0.20;;;;;;;13.68;32.77;101036.00;5056497;28;20455;-74
2022/03/11 06:34:01;;;;;;;0.20;0.20;;;;;;;13.68;32.05;101042.41;5039790;28;20116;-73
2022/03/11 06:36:28;;;;;;;0.20;0.20;;;;;;;13.87;30.77;101044.44;5040893;28;20476;-74
2022/03/11 06:38:54;;;;;;;0.20;0.20;;;;;;;14.26;31.29;101044.50;5039148;28;20087;-73
2022/03/11 06:41:21;;;;;;;0.20;0.20;;;;;;;14.37;30.85;101039.94;5037814;28;20029;-73
2022/03/11 06:43:46;;;;;;;0.20;0.20;;;;;;;14.75;30.53;101043.94;5055926;28;20557;-74
2022/03/11 06:46:12;;;;;;;0.20;0.20;;;;;;;15.29;30.40;101048.56;5038162;28;20033;-74
2022/03/11 06:48:38;;;;;;;0.20;0.20;;;;;;;15.23;29.08;101044.41;5037635;28;20042;-73
2022/03/11 06:51:04;;;;;;;0.20;0.20;;;;;;;15.42;29.53;101049.97;5037671;28;20037;-74
2022/03/11 06:53:32;;;;;;;0.20;0.20;;;;;;;15.36;29.15;101054.28;5055506;28;20349;-74
2022/03/11 06:55:58;;;;;;;0.20;0.20;;;;;;;14.47;30.11;101060.94;5055251;28;20036;-74
2022/03/11 06:58:23;;;;;;;0.20;0.20;;;;;;;14.39;31.09;101048.81;5037591;28;20067;-74
2022/03/11 07:00:49;;;;;;;0.20;0.20;;;;;;;13.93;30.68;101056.97;5038047;28;20083;-74
2022/03/11 07:03:15;;;;;;;0.20;0.20;;;;;;;13.26;32.48;101036.56;5055098;28;20025;-74
2022/03/11 07:05:40;;;;;;;0.20;0.20;;;;;;;12.76;33.58;101063.94;5055088;28;20534;-74
2022/03/11 07:08:08;;;;;;;0.20;0.20;;;;;;;11.84;34.01;101062.03;5038097;28;20031;-74
2022/03/11 07:10:33;;;;;;;0.20;0.20;;;;;;;12.18;32.68;101071.81;5037567;28;20025;-73
2022/03/11 07:12:59;;;;;;;0.10;0.10;;;;;;;12.39;33.27;101077.25;5036396;28;20400;-74
2022/03/11 07:15:32;;;;;;;0.20;0.20;;;;;;;12.96;32.72;101078.88;5037097;28;20463;-74
2022/03/11 07:17:58;;;;;;;0.20;0.20;;;;;;;13.81;31.25;101068.28;5036982;28;20032;-74
2022/03/11 07:20:23;;;;;;;0.20;0.20;;;;;;;14.06;29.31;101064.09;5037639;28;20260;-74
2022/03/11 07:22:49;;;;;;;0.20;0.20;;;;;;;14.66;29.19;101063.78;5036917;28;20507;-73
2022/03/11 07:25:15;;;;;;;0.20;0.20;;;;;;;14.99;28.45;101071.63;5037280;28;20060;-74
2022/03/11 07:27:41;;;;;;;0.20;0.20;;;;;;;15.16;27.96;101057.13;5037545;28;20460;-74
2022/03/11 07:30:09;;;;;;;0.15;0.15;;;;;;;15.36;26.84;101068.31;5036872;28;20121;-73
2022/03/11 07:32:35;;;;;;;0.20;0.20;;;;;;;15.61;26.70;101058.31;5036470;28;20021;-74
2022/03/11 07:35:01;;;;;;;0.20;0.20;;;;;;;15.84;26.89;101063.09;5055349;28;20339;-73
2022/03/11 07:37:27;;;;;;;0.17;0.17;;;;;;;15.25;28.25;101061.69;5054139;28;20029;-74
2022/03/11 07:39:52;;;;;;;0.20;0.20;;;;;;;14.31;29.48;101061.81;5036620;28;20025;-73
2022/03/11 07:42:18;;;;;;;0.20;0.20;;;;;;;13.87;28.92;101066.81;5037228;28;20033;-74
2022/03/11 07:44:44;;;;;;;0.20;0.20;;;;;;;13.83;29.78;101071.53;5036454;28;20069;-73
2022/03/11 07:47:10;;;;;;;0.20;0.20;;;;;;;14.60;29.12;101066.06;5054229;28;20021;-74
2022/03/11 07:49:35;;;;;;;0.20;0.20;;;;;;;14.95;28.24;101065.16;5054417;28;20090;-75
2022/03/11 07:52:02;;;;;;;0.20;0.20;;;;;;;15.36;27.62;101071.09;5036908;28;20032;-75
2022/03/11 07:54:28;;;;;;;0.20;0.20;;;;;;;15.09;28.66;101070.22;5036357;28;20035;-74
2022/03/11 07:56:53;;;;;;;0.10;0.10;;;;;;;15.41;27.55;101076.41;5036439;28;20037;-74
2022/03/11 07:59:19;;;;;;;0.20;0.20;;;;;;;15.91;27.22;101080.03;5036307;28;20111;-73
2022/03/11 08:01:46;;;;;;;0.20;0.20;;;;;;;16.08;26.76;101096.34;5036208;28;20037;-74
2022/03/11 08:04:13;;;;;;;0.20;0.20;;;;;;;16.24;26.38;101088.56;5035990;28;20036;-75
2022/03/11 08:06:39;;;;;;;0.20;0.20;;;;;;;16.04;26.48;101089.88;5036343;28;20029;-75
2022/03/11 08:09:05;;;;;;;0.10;0.10;;;;;;;16.18;26.11;101092.88;5036070;28;20025;-75
2022/03/11 08:11:30;;;;;;;0.20;0.20;;;;;;;16.14;25.93;101086.44;5036561;28;20029;-74
2022/03/11 08:13:56;;;;;;;0.20;0.20;;;;;;;15.61;27.28;101075.16;5035904;28;20586;-74
2022/03/11 08:16:21;;;;;;;0.20;0.20;;;;;;;15.17;26.78;101091.56;5035874;28;20029;-75
2022/03/11 08:18:47;;;;;;;0.20;0.20;;;;;;;15.26;27.47;101085.75;5036294;28;20033;-74
2022/03/11 08:21:16;;;;;;;0.10;0.10;;;;;;;14.11;28.98;101097.38;5035708;28;20037;-75
2022/03/11 08:23:43;;;;;;;0.20;0.20;;;;;;;14.08;28.72;101092.50;5054500;28;20021;-74
2022/03/11 08:26:10;;;;;;;0.20;0.20;;;;;;;14.08;28.60;101100.09;5036054;28;20391;-74
2022/03/11 08:28:37;;;;;;;0.20;0.20;;;;;;;14.38;28.45;101097.56;5054009;28;20025;-73
2022/03/11 08:31:03;;;;;;;0.20;0.20;;;;;;;14.54;28.38;101097.53;5053162;28;20060;-74
2022/03/11 08:33:30;;;;;;;0.10;0.10;;;;;;;15.03;27.33;101116.56;5034289;28;20026;-75
2022/03/11 08:35:57;;;;;;;0.20;0.20;;;;;;;15.56;27.21;101106.31;5035879;28;20094;-75
2022/03/11 08:38:22;;;;;;;0.10;0.10;;;;;;;15.53;26.47;101095.84;5035718;28;20025;-74
2022/03/11 08:40:48;;;;;;;0.20;0.20;;;;;;;14.33;28.27;101111.88;5035930;28;20043;-75
2022/03/11 08:43:13;;;;;;;0.10;0.10;;;;;;;14.49;28.72;101109.84;5054255;28;20182;-74
2022/03/11 08:45:39;;;;;;;0.10;0.10;;;;;;;15.01;27.67;101102.09;5053861;28;20033;-74
2022/03/11 08:48:05;;;;;;;0.20;0.20;;;;;;;15.78;27.00;101117.94;5035678;28;20545;-74
2022/03/11 08:50:31;;;;;;;0.20;0.20;;;;;;;14.61;28.54;101112.50;5053816;28;20175;-74
2022/03/11 08:52:56;;;;;;;0.20;0.20;;;;;;;14.31;28.07;101119.78;5035263;28;20090;-75
2022/03/11 08:55:22;;;;;;;0.20;0.20;;;;;;;14.26;28.40;101112.50;5035598;28;20033;-75
2022/03/11 08:57:53;;;;;;;0.20;0.20;;;;;;;15.29;27.77;101115.84;5035927;28;20029;-74
2022/03/11 09:00:23;;;;;;;0.10;0.10;;;;;;;15.40;26.65;101103.63;5036387;28;20445;-74
2022/03/11 09:02:51;;;;;;;0.20;0.20;;;;;;;15.58;27.21;101122.75;5053785;28;20029;-74
2022/03/11 09:05:20;;;;;;;0.10;0.10;;;;;;;16.59;26.21;101121.13;5035547;28;20021;-74
2022/03/11 09:07:48;;;;;;;0.20;0.20;;;;;;;16.66;25.37;101121.22;5053153;28;20436;-74
2022/03/11 09:10:15;;;;;;;0.10;0.10;;;;;;;16.97;24.92;101122.84;5053560;28;20071;-74
2022/03/11 09:12:40;;;;;;;0.20;0.20;;;;;;;16.56;25.32;101138.75;5032162;28;20022;-74
2022/03/11 09:15:07;;;;;;;0.20;0.20;;;;;;;16.42;24.92;101135.75;5048966;28;20036;-74
2022/03/11 09:17:33;;;;;;;0.20;0.20;;;;;;;16.89;25.02;101145.66;5035360;28;20029;-75
2022/03/11 09:20:03;;;;;;;0.20;0.20;;;;;;;16.74;25.54;101134.22;5035765;28;20040;-74
2022/03/11 09:22:32;;;;;;;0.20;0.20;;;;;;;17.11;24.94;101136.25;5053183;28;20483;-74
2022/03/11 09:24:59;;;;;;;0.20;0.20;;;;;;;16.90;24.87;101127.59;5035898;28;20480;-74
2022/03/11 09:27:24;;;;;;;0.20;0.20;;;;;;;17.22;24.51;101123.13;5019074;28;20033;-74
2022/03/11 09:29:51;;;;;;;0.20;0.20;;;;;;;17.38;24.17;101133.34;5035256;28;20031;-74
2022/03/11 09:32:16;;;;;;;0.20;0.20;;;;;;;17.59;24.16;101130.72;5035501;28;20032;-74
2022/03/11 09:34:43;;;;;;;0.20;0.20;;;;;;;17.65;23.86;101129.16;5054108;28;20025;-74
2022/03/11 09:37:10;;;;;;;0.20;0.20;;;;;;;17.08;23.99;101122.16;5053707;28;20028;-74
2022/03/11 09:39:36;;;;;;;0.20;0.20;;;;;;;17.59;24.16;101132.72;5055669;28;20475;-74
2022/03/11 09:42:03;;;;;;;0.20;0.20;;;;;;;16.59;24.29;101129.56;5055925;28;20116;-74
2022/03/11 09:44:28;;;;;;;0.17;0.17;;;;;;;15.81;25.47;101128.38;5039048;28;20040;-74
2022/03/11 09:46:55;;;;;;;0.20;0.20;;;;;;;15.75;25.73;101124.28;5038736;28;20041;-74
2022/03/11 09:49:20;;;;;;;0.20;0.20;;;;;;;15.73;25.67;101107.03;5038512;28;20017;-74
2022/03/11 09:51:47;;;;;;;0.20;0.20;;;;;;;16.91;25.04;101123.56;5038670;28;20538;-74
2022/03/11 09:54:13;;;;;;;0.20;0.20;;;;;;;17.47;24.39;101117.75;5038971;28;20032;-74
2022/03/11 09:56:41;;;;;;;0.20;0.20;;;;;;;17.70;23.93;101114.75;5038499;28;20029;-73
2022/03/11 09:59:08;;;;;;;0.20;0.20;;;;;;;17.82;23.28;101098.78;5039046;28;20028;-74
2022/03/11 10:01:34;;;;;;;0.10;0.10;;;;;;;18.19;23.21;101113.53;5038485;28;20131;-74
2022/03/11 10:04:03;;;;;;;0.20;0.20;;;;;;;18.20;22.70;101109.50;5055371;28;20108;-74
2022/03/11 10:06:42;;;;;;;0.20;0.20;;;;;;;18.24;22.71;101130.06;5056310;28;20033;-73
2022/03/11 10:09:20;;;;;;;0.20;0.20;;;;;;;16.55;23.36;101111.84;5038389;28;20029;-74
2022/03/11 10:11:49;;;;;;;0.20;0.20;;;;;;;15.82;24.59;101113.16;5038138;28;20033;-74
2022/03/11 10:14:16;;;;;;;0.20;0.20;;;;;;;15.37;26.04;101114.78;5038305;28;20021;-74
2022/03/11 10:16:44;;;;;;;0.20;0.20;;;;;;;14.72;26.34;101101.53;5056085;28;20021;-74
2022/03/11 10:19:13;;;;;;;0.20;0.20;;;;;;;15.30;26.11;101109.06;5038151;28;20028;-74
2022/03/11 10:21:43;;;;;;;0.15;0.15;;;;;;;15.33;26.43;101106.28;5052324;28;20052;-74
2022/03/11 10:24:13;;;;;;;0.20;0.20;;;;;;;15.62;26.07;101104.81;5056579;28;20535;-74
2022/03/11 10:26:43;;;;;;;0.20;0.20;;;;;;;16.02;25.56;101097.84;5038643;28;20380;-74
2022/03/11 10:29:15;;;;;;;0.20;0.20;;;;;;;15.61;25.95;101102.41;5038479;28;20376;-74
2022/03/11 10:31:43;;;;;;;0.20;0.20;;;;;;;15.90;25.57;101104.50;5037905;28;20029;-75
2022/03/11 10:34:28;;;;;;;0.20;0.20;;;;;;;15.58;25.59;101109.53;5055753;28;20375;-74
2022/03/11 10:36:56;;;;;;;0.20;0.20;;;;;;;14.35;27.22;101109.50;5037924;28;20097;-74
2022/03/11 10:39:31;;;;;;;0.20;0.20;;;;;;;13.36;29.16;101115.09;5037836;28;20029;-74
2022/03/11 10:41:59;;;;;;;0.20;0.20;;;;;;;13.78;28.63;101116.56;5038302;28;20449;-75
2022/03/11 10:44:29;;;;;;;0.20;0.20;;;;;;;14.63;28.26;101112.94;5055960;28;20539;-75
2022/03/11 10:47:00;;;;;;;0.20;0.20;;;;;;;15.81;26.11;101087.09;5037850;28;20029;-75
2022/03/11 10:49:33;;;;;;;0.20;0.20;;;;;;;16.45;25.28;101085.22;5037646;28;20036;-75
2022/03/11 10:52:00;;;;;;;0.20;0.20;;;;;;;16.22;25.18;101099.38;5037473;28;20032;-74
2022/03/11 10:54:27;;;;;;;0.10;0.10;;;;;;;15.94;25.05;101104.56;5055342;28;20497;-75
2022/03/11 10:56:54;;;;;;;0.20;0.20;;;;;;;16.52;24.39;101086.53;5055715;28;20028;-74
2022/03/11 10:59:22;;;;;;;0.20;0.20;;;;;;;15.74;25.39;101100.22;5057522;28;20031;-75
2022/03/11 11:01:50;;;;;;;0.20;0.20;;;;;;;15.15;26.32;101091.16;5038258;28;20040;-75
2022/03/11 11:04:17;;;;;;;0.20;0.20;;;;;;;15.13;26.76;101099.94;5037594;28;20029;-74
2022/03/11 11:06:44;;;;;;;0.20;0.20;;;;;;;15.44;25.92;101096.06;5037726;28;20041;-74
2022/03/11 11:09:12;;;;;;;0.20;0.20;;;;;;;15.83;25.88;101086.75;5037955;28;20380;-74
2022/03/11 11:11:38;;;;;;;0.10;0.10;;;;;;;15.82;25.44;101083.13;5037405;28;20106;-74
2022/03/11 11:14:07;;;;;;;0.20;0.20;;;;;;;14.71;27.22;101094.31;5056918;28;20494;-76
2022/03/11 11:16:44;;;;;;;0.20;0.20;;;;;;;14.81;26.95;101087.31;5054417;28;20044;-75
2022/03/11 11:19:15;;;;;;;0.20;0.20;;;;;;;15.39;26.87;101092.78;5055189;28;20033;-75
2022/03/11 11:21:46;;;;;;;0.15;0.15;;;;;;;13.91;27.19;101095.72;5037389;28;20048;-75
2022/03/11 11:24:14;;;;;;;0.20;0.20;;;;;;;13.26;28.27;101084.91;5037138;28;20025;-75
2022/03/11 11:26:44;;;;;;;0.20;0.20;;;;;;;12.55;29.39;101092.06;5055104;28;20029;-74